LFRN/RNS METAR and TAF weather

Enter ICAO airport designator
Station Type Date Time Source
LFRN METAR 2020/09/22 03:30 UTC NOAA

LFRN 220330Z AUTO 28004KT 2000 BR OVC002 17/17 Q1014 TEMPO 0500 FG VV///


Station Type Date Time Source
LFRN Decoded METAR 2020/09/22 03:30 UTC NOAA

Rennes, France (LFRN) 48-04N 001-44W 37M
Sep 21, 2020 - 11:30 PM EDT / 2020.09.22 0330 UTC
Wind: from the W (280 degrees) at 5 MPH (4 KT):0
Visibility: 1 mile(s):0
Sky conditions: overcast
Weather: mist
Temperature: 62 F (17 C)
Dew Point: 62 F (17 C)
Relative Humidity: 100%
Pressure (altimeter): 29.94 in. Hg (1014 hPa)
ob: LFRN 220330Z AUTO 28004KT 2000 BR OVC002 17/17 Q1014 TEMPO 0500 FG VV///
cycle: 3

Station Type Date Time Source
LFRN TAF 2020/09/22 00:20 UTC NOAA

TAF
AMD LFRN 220012Z 2200/2224 VRB03KT 6000 OVC006
TEMPO 2200/2208 3000 BR OVC004 PROB40
TEMPO 2200/2207 0500 FG VV///
BECMG 2211/2213 23010KT BKN030 PROB40
TEMPO 2217/2224 4500 SHRA BKN030TCU

Example: see airport list